sensor_id;sensor_type;location;lat;lon;timestamp;P1;durP1;ratioP1;P2;durP2;ratioP2
2854;SDS011;1435;49.472;10.940;2023-11-19T00:03:37;3.47;;;3.20;;
2854;SDS011;1435;49.472;10.940;2023-11-19T00:08:39;3.77;;;2.93;;
2854;SDS011;1435;49.472;10.940;2023-11-19T00:13:42;2.93;;;2.70;;
2854;SDS011;1435;49.472;10.940;2023-11-19T00:18:43;3.20;;;2.97;;
2854;SDS011;1435;49.472;10.940;2023-11-19T00:23:45;3.70;;;3.40;;
2854;SDS011;1435;49.472;10.940;2023-11-19T00:28:48;4.13;;;3.10;;
2854;SDS011;1435;49.472;10.940;2023-11-19T00:33:50;2.93;;;2.73;;
2854;SDS011;1435;49.472;10.940;2023-11-19T00:38:51;3.83;;;3.53;;
2854;SDS011;1435;49.472;10.940;2023-11-19T00:43:55;3.47;;;3.17;;
2854;SDS011;1435;49.472;10.940;2023-11-19T00:48:56;4.67;;;3.77;;
2854;SDS011;1435;49.472;10.940;2023-11-19T00:53:59;3.90;;;3.60;;
2854;SDS011;1435;49.472;10.940;2023-11-19T00:59:03;5.10;;;3.60;;
2854;SDS011;1435;49.472;10.940;2023-11-19T01:04:05;3.60;;;3.30;;
2854;SDS011;1435;49.472;10.940;2023-11-19T01:09:07;3.93;;;3.63;;
2854;SDS011;1435;49.472;10.940;2023-11-19T01:14:11;3.87;;;3.53;;
2854;SDS011;1435;49.472;10.940;2023-11-19T01:19:12;4.40;;;3.83;;
2854;SDS011;1435;49.472;10.940;2023-11-19T01:24:14;3.73;;;3.43;;
2854;SDS011;1435;49.472;10.940;2023-11-19T01:29:17;4.87;;;4.47;;
2854;SDS011;1435;49.472;10.940;2023-11-19T01:34:20;4.00;;;3.57;;
2854;SDS011;1435;49.472;10.940;2023-11-19T01:39:21;4.30;;;3.87;;
2854;SDS011;1435;49.472;10.940;2023-11-19T01:44:24;5.20;;;4.70;;
2854;SDS011;1435;49.472;10.940;2023-11-19T01:49:26;5.27;;;4.27;;
2854;SDS011;1435;49.472;10.940;2023-11-19T01:54:29;4.53;;;4.13;;
2854;SDS011;1435;49.472;10.940;2023-11-19T01:59:32;4.90;;;4.50;;
2854;SDS011;1435;49.472;10.940;2023-11-19T02:04:34;4.50;;;4.10;;
2854;SDS011;1435;49.472;10.940;2023-11-19T02:09:35;4.47;;;4.17;;
2854;SDS011;1435;49.472;10.940;2023-11-19T02:14:39;5.63;;;4.00;;
2854;SDS011;1435;49.472;10.940;2023-11-19T02:19:41;4.33;;;4.03;;
2854;SDS011;1435;49.472;10.940;2023-11-19T02:24:42;4.20;;;3.80;;
2854;SDS011;1435;49.472;10.940;2023-11-19T02:29:48;4.83;;;4.33;;
2854;SDS011;1435;49.472;10.940;2023-11-19T02:34:50;3.47;;;3.17;;
2854;SDS011;1435;49.472;10.940;2023-11-19T02:39:53;3.13;;;2.90;;
2854;SDS011;1435;49.472;10.940;2023-11-19T02:44:56;4.17;;;3.73;;
2854;SDS011;1435;49.472;10.940;2023-11-19T02:49:58;4.07;;;3.77;;
2854;SDS011;1435;49.472;10.940;2023-11-19T02:54:59;3.70;;;3.13;;
2854;SDS011;1435;49.472;10.940;2023-11-19T03:00:03;4.57;;;4.17;;
2854;SDS011;1435;49.472;10.940;2023-11-19T03:05:12;5.00;;;4.20;;
2854;SDS011;1435;49.472;10.940;2023-11-19T03:44:55;5.70;;;5.20;;
2854;SDS011;1435;49.472;10.940;2023-11-19T03:49:57;5.73;;;5.20;;
2854;SDS011;1435;49.472;10.940;2023-11-19T03:55:01;8.20;;;5.67;;
2854;SDS011;1435;49.472;10.940;2023-11-19T04:00:06;6.47;;;5.80;;
2854;SDS011;1435;49.472;10.940;2023-11-19T04:05:10;6.10;;;5.30;;
2854;SDS011;1435;49.472;10.940;2023-11-19T04:10:11;7.00;;;5.97;;
2854;SDS011;1435;49.472;10.940;2023-11-19T04:15:16;7.17;;;6.47;;
2854;SDS011;1435;49.472;10.940;2023-11-19T04:20:18;5.70;;;4.83;;
2854;SDS011;1435;49.472;10.940;2023-11-19T04:25:19;5.40;;;4.97;;
2854;SDS011;1435;49.472;10.940;2023-11-19T04:30:22;7.93;;;6.40;;
2854;SDS011;1435;49.472;10.940;2023-11-19T04:35:24;5.83;;;5.30;;
2854;SDS011;1435;49.472;10.940;2023-11-19T04:40:26;8.03;;;6.20;;
2854;SDS011;1435;49.472;10.940;2023-11-19T04:45:30;5.80;;;5.20;;
2854;SDS011;1435;49.472;10.940;2023-11-19T04:50:32;5.50;;;5.00;;
2854;SDS011;1435;49.472;10.940;2023-11-19T04:55:33;6.57;;;5.57;;
2854;SDS011;1435;49.472;10.940;2023-11-19T05:00:37;5.23;;;4.73;;
2854;SDS011;1435;49.472;10.940;2023-11-19T05:05:38;7.20;;;5.73;;
2854;SDS011;1435;49.472;10.940;2023-11-19T05:10:40;7.13;;;6.40;;
2854;SDS011;1435;49.472;10.940;2023-11-19T05:15:43;7.53;;;6.83;;
2854;SDS011;1435;49.472;10.940;2023-11-19T05:20:45;6.80;;;5.57;;
2854;SDS011;1435;49.472;10.940;2023-11-19T05:25:47;8.13;;;7.33;;
2854;SDS011;1435;49.472;10.940;2023-11-19T05:30:50;7.30;;;6.03;;
2854;SDS011;1435;49.472;10.940;2023-11-19T05:35:51;7.20;;;6.50;;
2854;SDS011;1435;49.472;10.940;2023-11-19T05:40:53;6.27;;;5.30;;
2854;SDS011;1435;49.472;10.940;2023-11-19T05:45:56;7.33;;;6.40;;
2854;SDS011;1435;49.472;10.940;2023-11-19T05:50:58;5.33;;;4.77;;
2854;SDS011;1435;49.472;10.940;2023-11-19T05:56:00;5.87;;;5.30;;
2854;SDS011;1435;49.472;10.940;2023-11-19T06:01:05;5.93;;;4.30;;
2854;SDS011;1435;49.472;10.940;2023-11-19T06:06:08;5.23;;;4.73;;
2854;SDS011;1435;49.472;10.940;2023-11-19T06:11:10;7.57;;;5.47;;
2854;SDS011;1435;49.472;10.940;2023-11-19T06:16:16;7.50;;;5.73;;
2854;SDS011;1435;49.472;10.940;2023-11-19T06:21:17;5.60;;;4.90;;
2854;SDS011;1435;49.472;10.940;2023-11-19T06:26:19;6.97;;;4.90;;
2854;SDS011;1435;49.472;10.940;2023-11-19T06:31:23;5.63;;;4.33;;
2854;SDS011;1435;49.472;10.940;2023-11-19T06:36:24;6.03;;;4.90;;
2854;SDS011;1435;49.472;10.940;2023-11-19T06:41:26;2.87;;;2.67;;
2854;SDS011;1435;49.472;10.940;2023-11-19T06:46:30;3.00;;;2.30;;
2854;SDS011;1435;49.472;10.940;2023-11-19T06:51:32;0.50;;;0.50;;
2854;SDS011;1435;49.472;10.940;2023-11-19T06:56:34;0.50;;;0.50;;
2854;SDS011;1435;49.472;10.940;2023-11-19T07:01:38;0.70;;;0.70;;
2854;SDS011;1435;49.472;10.940;2023-11-19T07:06:43;0.80;;;0.80;;
2854;SDS011;1435;49.472;10.940;2023-11-19T07:11:45;0.57;;;0.40;;
2854;SDS011;1435;49.472;10.940;2023-11-19T07:16:48;0.40;;;0.33;;
2854;SDS011;1435;49.472;10.940;2023-11-19T07:21:50;1.23;;;0.50;;
2854;SDS011;1435;49.472;10.940;2023-11-19T07:26:54;1.33;;;0.53;;
2854;SDS011;1435;49.472;10.940;2023-11-19T07:31:57;0.70;;;0.50;;
2854;SDS011;1435;49.472;10.940;2023-11-19T07:36:59;0.70;;;0.70;;
2854;SDS011;1435;49.472;10.940;2023-11-19T07:42:02;0.43;;;0.40;;
2854;SDS011;1435;49.472;10.940;2023-11-19T07:47:06;0.77;;;0.43;;
2854;SDS011;1435;49.472;10.940;2023-11-19T07:52:07;0.63;;;0.63;;
2854;SDS011;1435;49.472;10.940;2023-11-19T07:57:09;0.50;;;0.40;;
2854;SDS011;1435;49.472;10.940;2023-11-19T08:02:12;0.73;;;0.57;;
2854;SDS011;1435;49.472;10.940;2023-11-19T08:07:14;0.67;;;0.67;;
2854;SDS011;1435;49.472;10.940;2023-11-19T08:12:16;1.00;;;0.80;;
2854;SDS011;1435;49.472;10.940;2023-11-19T08:17:19;1.37;;;0.83;;
2854;SDS011;1435;49.472;10.940;2023-11-19T08:22:23;0.60;;;0.60;;
2854;SDS011;1435;49.472;10.940;2023-11-19T08:27:26;1.07;;;0.97;;
2854;SDS011;1435;49.472;10.940;2023-11-19T08:32:29;0.80;;;0.80;;
2854;SDS011;1435;49.472;10.940;2023-11-19T08:37:30;0.67;;;0.60;;
2854;SDS011;1435;49.472;10.940;2023-11-19T08:42:32;0.73;;;0.73;;
2854;SDS011;1435;49.472;10.940;2023-11-19T08:47:35;0.70;;;0.70;;
2854;SDS011;1435;49.472;10.940;2023-11-19T08:52:37;1.07;;;0.97;;
2854;SDS011;1435;49.472;10.940;2023-11-19T08:57:39;1.20;;;1.10;;
2854;SDS011;1435;49.472;10.940;2023-11-19T09:02:42;1.00;;;1.00;;
2854;SDS011;1435;49.472;10.940;2023-11-19T09:07:44;0.80;;;0.80;;
2854;SDS011;1435;49.472;10.940;2023-11-19T09:12:45;2.80;;;1.40;;
2854;SDS011;1435;49.472;10.940;2023-11-19T09:17:48;1.00;;;1.00;;
2854;SDS011;1435;49.472;10.940;2023-11-19T09:22:50;1.20;;;1.00;;
2854;SDS011;1435;49.472;10.940;2023-11-19T09:27:52;3.53;;;1.57;;
2854;SDS011;1435;49.472;10.940;2023-11-19T09:32:55;1.13;;;1.13;;
2854;SDS011;1435;49.472;10.940;2023-11-19T09:37:56;1.63;;;0.90;;
2854;SDS011;1435;49.472;10.940;2023-11-19T09:42:59;0.77;;;0.77;;
2854;SDS011;1435;49.472;10.940;2023-11-19T09:48:02;1.50;;;0.70;;
2854;SDS011;1435;49.472;10.940;2023-11-19T09:53:04;1.13;;;0.80;;
2854;SDS011;1435;49.472;10.940;2023-11-19T09:58:06;1.57;;;1.10;;
2854;SDS011;1435;49.472;10.940;2023-11-19T10:03:10;1.67;;;0.80;;
2854;SDS011;1435;49.472;10.940;2023-11-19T10:08:13;1.93;;;1.20;;
2854;SDS011;1435;49.472;10.940;2023-11-19T10:13:16;1.33;;;1.23;;
2854;SDS011;1435;49.472;10.940;2023-11-19T10:18:19;1.60;;;0.93;;
2854;SDS011;1435;49.472;10.940;2023-11-19T10:23:25;1.30;;;1.20;;
2854;SDS011;1435;49.472;10.940;2023-11-19T10:28:27;2.83;;;1.13;;
2854;SDS011;1435;49.472;10.940;2023-11-19T10:33:30;1.27;;;0.97;;
2854;SDS011;1435;49.472;10.940;2023-11-19T10:38:32;1.90;;;1.00;;
2854;SDS011;1435;49.472;10.940;2023-11-19T10:43:44;0.73;;;0.73;;
2854;SDS011;1435;49.472;10.940;2023-11-19T10:48:47;0.63;;;0.60;;
2854;SDS011;1435;49.472;10.940;2023-11-19T10:53:49;2.00;;;0.70;;
2854;SDS011;1435;49.472;10.940;2023-11-19T10:58:51;1.20;;;1.10;;
2854;SDS011;1435;49.472;10.940;2023-11-19T11:03:56;0.83;;;0.83;;
2854;SDS011;1435;49.472;10.940;2023-11-19T11:09:00;0.80;;;0.80;;
2854;SDS011;1435;49.472;10.940;2023-11-19T11:14:02;1.63;;;1.40;;
2854;SDS011;1435;49.472;10.940;2023-11-19T11:19:07;1.57;;;0.83;;
2854;SDS011;1435;49.472;10.940;2023-11-19T11:24:23;1.00;;;0.90;;
2854;SDS011;1435;49.472;10.940;2023-11-19T11:29:48;1.80;;;0.83;;
2854;SDS011;1435;49.472;10.940;2023-11-19T11:35:10;0.73;;;0.70;;
2854;SDS011;1435;49.472;10.940;2023-11-19T11:40:25;2.60;;;1.10;;
2854;SDS011;1435;49.472;10.940;2023-11-19T11:45:36;1.47;;;0.77;;
2854;SDS011;1435;49.472;10.940;2023-11-19T11:50:49;1.43;;;1.20;;
2854;SDS011;1435;49.472;10.940;2023-11-19T11:55:55;1.87;;;1.30;;
2854;SDS011;1435;49.472;10.940;2023-11-19T12:01:00;1.57;;;1.00;;
2854;SDS011;1435;49.472;10.940;2023-11-19T12:06:07;2.40;;;1.03;;
2854;SDS011;1435;49.472;10.940;2023-11-19T12:11:09;2.97;;;1.57;;
2854;SDS011;1435;49.472;10.940;2023-11-19T12:16:12;1.60;;;1.40;;
2854;SDS011;1435;49.472;10.940;2023-11-19T12:21:28;2.97;;;1.20;;
2854;SDS011;1435;49.472;10.940;2023-11-19T12:26:31;2.00;;;1.00;;
2854;SDS011;1435;49.472;10.940;2023-11-19T12:31:37;2.40;;;1.60;;
2854;SDS011;1435;49.472;10.940;2023-11-19T12:36:40;1.80;;;1.40;;
2854;SDS011;1435;49.472;10.940;2023-11-19T12:41:49;1.13;;;1.03;;
2854;SDS011;1435;49.472;10.940;2023-11-19T12:46:59;0.83;;;0.80;;
2854;SDS011;1435;49.472;10.940;2023-11-19T12:52:10;1.90;;;1.00;;
2854;SDS011;1435;49.472;10.940;2023-11-19T12:57:13;0.90;;;0.90;;
2854;SDS011;1435;49.472;10.940;2023-11-19T13:02:15;0.93;;;0.93;;
2854;SDS011;1435;49.472;10.940;2023-11-19T13:07:21;2.50;;;1.07;;
2854;SDS011;1435;49.472;10.940;2023-11-19T13:12:23;1.30;;;1.20;;
2854;SDS011;1435;49.472;10.940;2023-11-19T13:17:24;0.87;;;0.70;;
2854;SDS011;1435;49.472;10.940;2023-11-19T13:22:28;1.87;;;1.20;;
2854;SDS011;1435;49.472;10.940;2023-11-19T13:27:30;1.53;;;0.70;;
2854;SDS011;1435;49.472;10.940;2023-11-19T13:32:32;1.10;;;0.87;;
2854;SDS011;1435;49.472;10.940;2023-11-19T13:37:35;1.63;;;1.30;;
2854;SDS011;1435;49.472;10.940;2023-11-19T13:42:36;1.20;;;0.80;;
2854;SDS011;1435;49.472;10.940;2023-11-19T13:47:41;1.20;;;1.00;;
2854;SDS011;1435;49.472;10.940;2023-11-19T13:52:45;3.27;;;1.10;;
2854;SDS011;1435;49.472;10.940;2023-11-19T13:57:47;1.40;;;1.00;;
2854;SDS011;1435;49.472;10.940;2023-11-19T14:02:49;1.50;;;0.87;;
2854;SDS011;1435;49.472;10.940;2023-11-19T14:07:53;2.03;;;0.97;;
2854;SDS011;1435;49.472;10.940;2023-11-19T14:12:56;0.90;;;0.80;;
2854;SDS011;1435;49.472;10.940;2023-11-19T14:17:58;1.13;;;0.80;;
2854;SDS011;1435;49.472;10.940;2023-11-19T14:23:01;2.23;;;1.10;;
2854;SDS011;1435;49.472;10.940;2023-11-19T14:28:03;1.73;;;0.80;;
2854;SDS011;1435;49.472;10.940;2023-11-19T14:33:05;1.67;;;0.80;;
2854;SDS011;1435;49.472;10.940;2023-11-19T14:38:08;1.00;;;0.70;;
2854;SDS011;1435;49.472;10.940;2023-11-19T14:43:10;1.60;;;1.00;;
2854;SDS011;1435;49.472;10.940;2023-11-19T14:48:12;1.23;;;1.10;;
2854;SDS011;1435;49.472;10.940;2023-11-19T14:53:15;1.03;;;0.63;;
2854;SDS011;1435;49.472;10.940;2023-11-19T14:58:18;2.23;;;1.90;;
2854;SDS011;1435;49.472;10.940;2023-11-19T15:03:19;3.20;;;1.10;;
2854;SDS011;1435;49.472;10.940;2023-11-19T15:08:23;2.57;;;1.30;;
2854;SDS011;1435;49.472;10.940;2023-11-19T15:13:25;3.23;;;1.00;;
2854;SDS011;1435;49.472;10.940;2023-11-19T15:18:27;1.17;;;0.93;;
2854;SDS011;1435;49.472;10.940;2023-11-19T15:23:30;2.40;;;1.00;;
2854;SDS011;1435;49.472;10.940;2023-11-19T15:28:31;1.27;;;0.90;;
2854;SDS011;1435;49.472;10.940;2023-11-19T15:33:33;2.20;;;1.20;;
2854;SDS011;1435;49.472;10.940;2023-11-19T15:38:36;2.30;;;1.27;;
2854;SDS011;1435;49.472;10.940;2023-11-19T15:43:38;1.20;;;0.87;;
2854;SDS011;1435;49.472;10.940;2023-11-19T15:48:40;1.27;;;0.80;;
2854;SDS011;1435;49.472;10.940;2023-11-19T15:53:43;1.87;;;1.27;;
2854;SDS011;1435;49.472;10.940;2023-11-19T15:58:46;1.70;;;0.83;;
2854;SDS011;1435;49.472;10.940;2023-11-19T16:03:49;1.10;;;1.00;;
2854;SDS011;1435;49.472;10.940;2023-11-19T16:08:53;0.80;;;0.80;;
2854;SDS011;1435;49.472;10.940;2023-11-19T16:13:56;1.67;;;1.20;;
2854;SDS011;1435;49.472;10.940;2023-11-19T16:18:57;3.00;;;1.13;;
2854;SDS011;1435;49.472;10.940;2023-11-19T16:24:00;1.17;;;0.80;;
2854;SDS011;1435;49.472;10.940;2023-11-19T16:29:02;2.80;;;1.50;;
2854;SDS011;1435;49.472;10.940;2023-11-19T16:34:05;1.20;;;1.10;;
2854;SDS011;1435;49.472;10.940;2023-11-19T16:39:08;1.07;;;1.07;;
2854;SDS011;1435;49.472;10.940;2023-11-19T16:44:10;1.33;;;1.10;;
2854;SDS011;1435;49.472;10.940;2023-11-19T16:49:12;3.63;;;1.40;;
2854;SDS011;1435;49.472;10.940;2023-11-19T16:54:18;3.63;;;1.30;;
2854;SDS011;1435;49.472;10.940;2023-11-19T16:59:20;4.90;;;1.40;;
2854;SDS011;1435;49.472;10.940;2023-11-19T17:04:21;1.33;;;1.03;;
2854;SDS011;1435;49.472;10.940;2023-11-19T17:09:25;1.00;;;0.80;;
2854;SDS011;1435;49.472;10.940;2023-11-19T17:14:28;1.63;;;1.20;;
2854;SDS011;1435;49.472;10.940;2023-11-19T17:19:29;2.47;;;1.10;;
2854;SDS011;1435;49.472;10.940;2023-11-19T17:24:32;2.93;;;1.20;;
2854;SDS011;1435;49.472;10.940;2023-11-19T17:29:34;2.50;;;1.10;;
2854;SDS011;1435;49.472;10.940;2023-11-19T17:34:36;1.70;;;1.27;;
2854;SDS011;1435;49.472;10.940;2023-11-19T17:39:39;3.80;;;1.27;;
2854;SDS011;1435;49.472;10.940;2023-11-19T17:44:42;1.50;;;0.97;;
2854;SDS011;1435;49.472;10.940;2023-11-19T17:49:43;4.40;;;1.40;;
2854;SDS011;1435;49.472;10.940;2023-11-19T17:54:46;6.30;;;1.80;;
2854;SDS011;1435;49.472;10.940;2023-11-19T17:59:48;2.00;;;1.00;;
2854;SDS011;1435;49.472;10.940;2023-11-19T18:04:51;1.73;;;1.50;;
2854;SDS011;1435;49.472;10.940;2023-11-19T18:09:54;1.47;;;1.23;;
2854;SDS011;1435;49.472;10.940;2023-11-19T18:14:56;2.00;;;1.13;;
2854;SDS011;1435;49.472;10.940;2023-11-19T18:19:57;1.50;;;1.03;;
2854;SDS011;1435;49.472;10.940;2023-11-19T18:25:00;2.07;;;1.53;;
2854;SDS011;1435;49.472;10.940;2023-11-19T18:30:02;1.60;;;1.00;;
2854;SDS011;1435;49.472;10.940;2023-11-19T18:35:06;3.43;;;1.23;;
2854;SDS011;1435;49.472;10.940;2023-11-19T18:40:12;6.73;;;1.53;;
2854;SDS011;1435;49.472;10.940;2023-11-19T18:45:18;4.67;;;1.17;;
2854;SDS011;1435;49.472;10.940;2023-11-19T18:50:21;1.73;;;1.20;;
2854;SDS011;1435;49.472;10.940;2023-11-19T18:55:24;4.37;;;1.30;;
2854;SDS011;1435;49.472;10.940;2023-11-19T19:00:27;2.80;;;1.40;;
2854;SDS011;1435;49.472;10.940;2023-11-19T19:05:28;2.97;;;1.40;;
2854;SDS011;1435;49.472;10.940;2023-11-19T19:10:31;0.90;;;0.70;;
2854;SDS011;1435;49.472;10.940;2023-11-19T19:15:37;2.80;;;1.00;;
2854;SDS011;1435;49.472;10.940;2023-11-19T19:20:39;2.47;;;1.47;;
2854;SDS011;1435;49.472;10.940;2023-11-19T19:25:42;2.07;;;1.50;;
2854;SDS011;1435;49.472;10.940;2023-11-19T19:30:44;3.43;;;1.43;;
2854;SDS011;1435;49.472;10.940;2023-11-19T19:35:45;2.10;;;1.27;;
2854;SDS011;1435;49.472;10.940;2023-11-19T19:40:49;4.57;;;1.43;;
2854;SDS011;1435;49.472;10.940;2023-11-19T19:45:51;2.20;;;1.40;;
2854;SDS011;1435;49.472;10.940;2023-11-19T19:50:54;2.10;;;0.90;;
2854;SDS011;1435;49.472;10.940;2023-11-19T19:55:57;2.40;;;0.93;;
2854;SDS011;1435;49.472;10.940;2023-11-19T20:00:59;1.67;;;1.10;;
2854;SDS011;1435;49.472;10.940;2023-11-19T20:06:02;2.33;;;1.27;;
2854;SDS011;1435;49.472;10.940;2023-11-19T20:11:06;2.17;;;1.07;;
2854;SDS011;1435;49.472;10.940;2023-11-19T20:16:08;2.23;;;1.10;;
2854;SDS011;1435;49.472;10.940;2023-11-19T20:21:10;2.47;;;1.73;;
2854;SDS011;1435;49.472;10.940;2023-11-19T20:26:13;6.33;;;2.07;;
2854;SDS011;1435;49.472;10.940;2023-11-19T20:31:18;3.13;;;2.10;;
2854;SDS011;1435;49.472;10.940;2023-11-19T20:36:20;3.60;;;1.43;;
2854;SDS011;1435;49.472;10.940;2023-11-19T20:41:23;3.33;;;1.13;;
2854;SDS011;1435;49.472;10.940;2023-11-19T20:46:24;2.57;;;1.50;;
2854;SDS011;1435;49.472;10.940;2023-11-19T20:51:26;4.03;;;1.50;;
2854;SDS011;1435;49.472;10.940;2023-11-19T20:56:30;4.27;;;1.33;;
2854;SDS011;1435;49.472;10.940;2023-11-19T21:01:32;1.73;;;1.17;;
2854;SDS011;1435;49.472;10.940;2023-11-19T21:06:34;2.40;;;1.27;;
2854;SDS011;1435;49.472;10.940;2023-11-19T21:11:38;2.63;;;1.63;;
2854;SDS011;1435;49.472;10.940;2023-11-19T21:16:40;2.50;;;1.10;;
2854;SDS011;1435;49.472;10.940;2023-11-19T21:21:42;3.53;;;1.57;;
2854;SDS011;1435;49.472;10.940;2023-11-19T21:26:45;4.80;;;1.47;;
2854;SDS011;1435;49.472;10.940;2023-11-19T21:31:46;2.50;;;1.27;;
2854;SDS011;1435;49.472;10.940;2023-11-19T21:36:49;5.10;;;1.80;;
2854;SDS011;1435;49.472;10.940;2023-11-19T21:41:52;2.40;;;1.10;;
2854;SDS011;1435;49.472;10.940;2023-11-19T21:46:54;6.43;;;1.50;;
2854;SDS011;1435;49.472;10.940;2023-11-19T21:51:56;3.60;;;1.73;;
2854;SDS011;1435;49.472;10.940;2023-11-19T21:56:59;2.60;;;1.57;;
2854;SDS011;1435;49.472;10.940;2023-11-19T22:02:02;4.53;;;1.70;;
2854;SDS011;1435;49.472;10.940;2023-11-19T22:07:04;6.67;;;1.50;;
2854;SDS011;1435;49.472;10.940;2023-11-19T22:12:08;4.10;;;1.47;;
2854;SDS011;1435;49.472;10.940;2023-11-19T22:17:10;9.63;;;1.23;;
2854;SDS011;1435;49.472;10.940;2023-11-19T22:22:12;5.30;;;1.50;;
2854;SDS011;1435;49.472;10.940;2023-11-19T22:27:15;5.33;;;1.80;;
2854;SDS011;1435;49.472;10.940;2023-11-19T22:32:16;6.73;;;1.93;;
2854;SDS011;1435;49.472;10.940;2023-11-19T22:37:18;3.60;;;1.70;;
2854;SDS011;1435;49.472;10.940;2023-11-19T22:42:21;3.23;;;1.30;;
2854;SDS011;1435;49.472;10.940;2023-11-19T22:47:23;8.70;;;2.37;;
2854;SDS011;1435;49.472;10.940;2023-11-19T22:52:25;5.50;;;1.97;;
2854;SDS011;1435;49.472;10.940;2023-11-19T22:57:28;5.40;;;1.93;;
2854;SDS011;1435;49.472;10.940;2023-11-19T23:02:30;5.67;;;1.63;;
2854;SDS011;1435;49.472;10.940;2023-11-19T23:07:31;4.80;;;1.37;;
2854;SDS011;1435;49.472;10.940;2023-11-19T23:12:34;4.37;;;1.93;;
2854;SDS011;1435;49.472;10.940;2023-11-19T23:17:36;3.33;;;1.87;;
2854;SDS011;1435;49.472;10.940;2023-11-19T23:22:38;11.43;;;2.20;;
2854;SDS011;1435;49.472;10.940;2023-11-19T23:27:41;5.70;;;1.87;;
2854;SDS011;1435;49.472;10.940;2023-11-19T23:32:45;4.40;;;1.80;;
2854;SDS011;1435;49.472;10.940;2023-11-19T23:37:47;5.53;;;1.33;;
2854;SDS011;1435;49.472;10.940;2023-11-19T23:42:50;9.53;;;2.03;;
2854;SDS011;1435;49.472;10.940;2023-11-19T23:47:52;6.50;;;2.37;;
2854;SDS011;1435;49.472;10.940;2023-11-19T23:52:54;5.30;;;2.90;;
2854;SDS011;1435;49.472;10.940;2023-11-19T23:57:57;10.73;;;2.70;;
